Midland, Texas
Current Conditions -  °F | °C
As of 5:55 PM on Wednesday 22 Oct 2014 (Local Time) from KMDD Reporting Station
Overcast Overcast  
Wind Chill: 72°   Ceiling: 4500
Heat Index: 72°   Visibility: 10mi
Dew Point: 59°   Wind: 8mph
Humidity: 65%   Direction: 150°SSE
Pressure: 30.08"   Gusts: NA
Location:  32°N, 102.07°W
Report Text: KMDD 222255Z AUTO 15007KT 10SM SCT038 BKN045 OVC050 22/15 A3008 RMK AO2 LTG DSNT SW AND NW T02210152
Loading
Personal Weather Stations






























Interactive Weather Map
Tropical Storm Tracking
New forecast layout! Learn more

10-Day Weather Forecast

Advertisements
Track Severe Weather on mobile